Time;durP1;ratioP1;P1;durP2;ratioP2;P2;SDS_P1;SDS_P2;PMS_P1;PMS_P2;Temp;Humidity;BMP_temperature;BMP_pressure;BME280_temperature;BME280_humidity;BME280_pressure;Samples;Min_cycle;Max_cycle;Signal;HPM_P1;HPM_P2
2021/09/15 00:01:18;;;;;;;26.57;15.57;;;;;;;16.22;77.29;100744.52;126357;1099;104137;-78
2021/09/15 00:03:49;;;;;;;27.63;15.43;;;;;;;16.24;77.42;100756.05;126362;1099;104133;-77
2021/09/15 00:06:19;;;;;;;26.23;14.40;;;;;;;16.22;77.38;100757.77;126209;1099;104159;-80
2021/09/15 00:08:50;;;;;;;26.23;14.73;;;;;;;16.21;77.54;100751.59;126378;1099;104738;-78
2021/09/15 00:11:22;;;;;;;25.63;14.63;;;;;;;16.20;76.92;100756.86;126316;1099;104156;-78
2021/09/15 00:13:53;;;;;;;26.30;14.37;;;;;;;16.18;77.17;100760.36;126338;1099;104173;-78
2021/09/15 00:16:24;;;;;;;28.20;15.70;;;;;;;16.17;77.21;100762.98;126277;1099;104169;-79
2021/09/15 00:18:56;;;;;;;29.20;15.00;;;;;;;16.15;77.67;100748.84;126309;1099;104146;-78
2021/09/15 00:21:29;;;;;;;26.07;15.67;;;;;;;16.14;77.62;100758.55;126318;1099;104143;-78
2021/09/15 00:24:00;;;;;;;26.60;15.37;;;;;;;16.13;77.76;100766.46;126328;1099;104141;-80
2021/09/15 00:26:31;;;;;;;26.17;15.37;;;;;;;16.10;77.78;100758.47;126299;1099;104254;-78
2021/09/15 00:29:01;;;;;;;27.47;15.07;;;;;;;16.05;77.33;100761.03;126301;1099;104137;-78
2021/09/15 00:31:34;;;;;;;28.13;15.37;;;;;;;16.01;77.52;100767.12;126269;1099;104233;-79
2021/09/15 00:34:05;;;;;;;30.20;16.02;;;;;;;15.97;77.38;100765.27;126329;1099;104137;-80
2021/09/15 00:36:37;;;;;;;27.87;15.63;;;;;;;15.93;77.34;100758.17;126276;1099;104142;-78
2021/09/15 00:39:08;;;;;;;28.77;15.40;;;;;;;15.93;77.53;100764.34;126375;1099;104143;-78
2021/09/15 00:41:42;;;;;;;29.20;15.90;;;;;;;15.93;77.74;100760.81;126333;1099;104249;-79
2021/09/15 00:44:14;;;;;;;29.07;16.03;;;;;;;15.94;77.85;100758.20;126348;1099;104319;-78
2021/09/15 00:46:50;;;;;;;30.30;15.57;;;;;;;15.95;77.71;100753.78;126287;1099;104149;-80
2021/09/15 00:49:22;;;;;;;28.20;14.43;;;;;;;15.95;77.83;100754.66;126329;1099;104155;-78
2021/09/15 00:51:53;;;;;;;25.57;14.13;;;;;;;15.92;77.49;100751.96;126344;1099;104267;-79
2021/09/15 00:54:26;;;;;;;27.53;14.93;;;;;;;15.90;77.46;100745.77;126374;1099;104145;-78
2021/09/15 00:57:01;;;;;;;25.07;13.87;;;;;;;15.89;78.50;100751.02;126332;1099;104261;-78
2021/09/15 00:59:35;;;;;;;23.70;14.10;;;;;;;15.85;78.57;100751.82;126300;1099;104155;-79
2021/09/15 01:02:06;;;;;;;25.77;14.17;;;;;;;15.80;78.49;100749.13;126299;1099;104265;-79
2021/09/15 01:04:38;;;;;;;26.40;14.43;;;;;;;15.77;77.70;100760.53;126386;1099;104280;-78
2021/09/15 01:07:13;;;;;;;24.32;14.38;;;;;;;15.77;78.26;100751.71;126320;1099;104235;-80
2021/09/15 01:09:45;;;;;;;26.37;13.73;;;;;;;15.76;77.60;100752.53;126325;1099;101835;-79
2021/09/15 01:12:19;;;;;;;24.53;14.23;;;;;;;15.76;78.28;100753.41;126349;1099;104149;-78
2021/09/15 01:15:11;;;;;;;22.67;13.03;;;;;;;15.76;77.61;100748.13;126337;1099;104242;-78
2021/09/15 01:18:00;;;;;;;25.40;13.87;;;;;;;15.74;78.07;100751.63;126294;1098;104156;-80
2021/09/15 01:20:49;;;;;;;25.30;13.63;;;;;;;15.71;78.91;100752.45;126356;1099;104235;-79
2021/09/15 01:23:30;;;;;;;23.43;13.70;;;;;;;15.73;77.85;100748.06;126316;1099;104146;-78
2021/09/15 01:26:20;;;;;;;31.60;14.47;;;;;;;15.76;77.84;100752.53;126328;1099;104143;-79
2021/09/15 01:29:15;;;;;;;26.17;13.20;;;;;;;15.80;78.23;100750.00;126242;1098;110825;-77
2021/09/15 01:32:00;;;;;;;28.33;13.63;;;;;;;15.81;77.92;100749.13;126331;1099;104153;-79
2021/09/15 01:34:38;;;;;;;26.83;14.03;;;;;;;15.85;78.89;100747.44;126322;1099;104582;-79
2021/09/15 01:37:13;;;;;;;25.43;14.00;;;;;;;15.89;78.69;100743.09;126278;1099;104309;-79
2021/09/15 01:39:59;;;;;;;24.27;13.27;;;;;;;15.94;77.90;100750.26;126332;1099;104601;-79
2021/09/15 01:42:30;;;;;;;27.00;13.47;;;;;;;15.96;77.97;100747.64;126324;1099;104166;-78
2021/09/15 01:45:04;;;;;;;26.03;12.73;;;;;;;15.96;78.09;100748.52;126352;1099;104166;-79
2021/09/15 01:47:35;;;;;;;25.40;13.87;;;;;;;15.95;77.65;100748.48;126323;1099;104197;-78
2021/09/15 01:50:07;;;;;;;27.63;14.07;;;;;;;15.89;77.61;100745.73;126226;1099;104219;-78
2021/09/15 01:52:39;;;;;;;28.00;14.67;;;;;;;15.83;77.80;100753.56;126353;1099;104146;-79
2021/09/15 01:55:24;;;;;;;26.23;13.63;;;;;;;15.76;78.11;100749.89;126355;1099;104156;-79
2021/09/15 01:58:07;;;;;;;28.00;14.10;;;;;;;15.69;78.10;100759.47;126275;1099;104239;-79
2021/09/15 02:00:51;;;;;;;23.93;14.43;;;;;;;15.66;78.10;100753.20;126369;1098;104242;-79
2021/09/15 02:03:40;;;;;;;30.53;15.30;;;;;;;15.63;78.04;100754.94;126345;1099;104322;-78
2021/09/15 02:06:32;;;;;;;24.97;13.80;;;;;;;15.60;78.88;100746.95;126361;1099;104185;-79
2021/09/15 02:09:07;;;;;;;26.70;13.77;;;;;;;15.60;78.93;100756.65;126283;1099;104685;-79
2021/09/15 02:11:43;;;;;;;29.03;13.73;;;;;;;15.58;78.01;100745.13;126364;1099;104141;-80
2021/09/15 02:14:14;;;;;;;24.07;13.07;;;;;;;15.58;78.46;100753.06;126336;1099;104278;-79
2021/09/15 02:16:52;;;;;;;24.60;13.07;;;;;;;15.55;78.02;100743.34;126331;1099;104146;-77
2021/09/15 02:19:23;;;;;;;24.33;13.63;;;;;;;15.53;77.99;100750.33;126298;1099;104143;-79
2021/09/15 02:22:10;;;;;;;27.97;14.23;;;;;;;15.52;78.13;100750.30;126326;1099;104188;-78
2021/09/15 02:24:50;;;;;;;26.20;13.90;;;;;;;15.49;78.40;100756.44;126295;1099;104137;-79
2021/09/15 02:27:35;;;;;;;26.00;14.30;;;;;;;15.48;77.98;100756.41;126331;1099;104245;-79
2021/09/15 02:30:09;;;;;;;26.97;13.80;;;;;;;15.46;78.41;100751.97;126270;1099;104287;-79
2021/09/15 02:32:45;;;;;;;25.47;13.87;;;;;;;15.45;78.49;100752.81;126321;1099;104749;-78
2021/09/15 02:35:30;;;;;;;26.50;14.67;;;;;;;15.45;79.10;100758.11;126326;1099;104672;-78
2021/09/15 02:38:11;;;;;;;24.40;14.30;;;;;;;15.43;78.45;100762.48;126306;1099;104209;-77
2021/09/15 02:40:56;;;;;;;25.35;14.60;;;;;;;15.43;79.00;100753.67;126361;1099;118883;-79
2021/09/15 02:43:41;;;;;;;28.62;14.10;;;;;;;15.42;79.18;100754.52;126354;1099;104291;-78
2021/09/15 02:46:32;;;;;;;24.17;13.63;;;;;;;15.42;78.22;100751.87;126352;1099;104185;-78
2021/09/15 02:49:20;;;;;;;24.53;14.17;;;;;;;15.42;78.86;100759.81;126273;1099;104222;-78
2021/09/15 02:52:09;;;;;;;25.47;13.53;;;;;;;15.37;78.56;100762.36;126341;1099;104185;-78
2021/09/15 02:54:51;;;;;;;27.00;14.83;;;;;;;15.29;78.81;100766.61;126274;1099;104308;-78
2021/09/15 02:57:35;;;;;;;24.17;13.90;;;;;;;15.22;78.21;100772.62;126261;1099;104293;-78
2021/09/15 03:00:39;;;;;;;25.13;13.50;;;;;;;15.16;78.76;100777.77;126193;1098;104363;-77
2021/09/15 03:03:18;;;;;;;26.10;14.50;;;;;;;15.10;79.10;100779.44;126333;1098;104248;-78
2021/09/15 03:06:15;;;;;;;28.20;14.60;;;;;;;15.07;78.90;100791.70;126331;1099;104145;-78
2021/09/15 03:08:57;;;;;;;26.35;14.33;;;;;;;15.02;79.41;100791.59;126286;1099;104301;-78
2021/09/15 03:11:29;;;;;;;25.53;14.03;;;;;;;15.02;79.66;100795.97;126322;1099;104361;-78
2021/09/15 03:14:01;;;;;;;24.43;14.07;;;;;;;15.01;79.67;100795.09;126332;1099;104155;-79
2021/09/15 03:16:34;;;;;;;23.17;12.97;;;;;;;15.02;79.70;100796.88;126302;1099;104274;-79
2021/09/15 03:19:09;;;;;;;26.40;14.20;;;;;;;15.03;79.62;100796.00;126331;1099;103285;-77
2021/09/15 03:21:44;;;;;;;24.40;13.80;;;;;;;15.06;78.76;100795.19;126326;1099;104181;-78
2021/09/15 03:24:17;;;;;;;25.53;13.87;;;;;;;15.05;79.34;100799.59;126309;1099;104143;-78
2021/09/15 03:26:53;;;;;;;26.00;13.83;;;;;;;15.01;79.72;100796.84;126326;1099;104204;-78
2021/09/15 03:29:27;;;;;;;25.93;14.07;;;;;;;14.99;79.12;100801.19;126274;1099;104656;-78
2021/09/15 03:32:00;;;;;;;26.83;13.60;;;;;;;14.95;79.81;100808.16;126358;1097;104137;-79
2021/09/15 03:34:31;;;;;;;31.10;14.40;;;;;;;14.91;78.98;100809.85;126353;1099;104203;-78
2021/09/15 03:37:03;;;;;;;24.40;13.83;;;;;;;14.92;79.37;100810.73;126306;1099;104299;-78
2021/09/15 03:39:34;;;;;;;26.47;13.83;;;;;;;14.91;79.15;100815.13;126356;1099;104176;-78
2021/09/15 03:42:05;;;;;;;24.43;13.97;;;;;;;14.92;79.55;100813.37;126228;1099;111347;-79
2021/09/15 03:44:36;;;;;;;26.40;13.80;;;;;;;14.92;79.94;100821.30;126321;1099;104143;-79
2021/09/15 03:47:08;;;;;;;26.80;13.53;;;;;;;14.91;80.13;100824.79;126317;1099;104223;-79
2021/09/15 03:49:39;;;;;;;27.43;14.43;;;;;;;14.91;79.26;100823.06;126289;1099;104139;-79
2021/09/15 03:52:11;;;;;;;24.20;13.40;;;;;;;14.93;79.77;100828.38;126294;1098;104194;-78
2021/09/15 03:54:43;;;;;;;25.93;13.73;;;;;;;14.96;80.30;100833.73;126362;1099;104245;-79
2021/09/15 03:57:15;;;;;;;25.43;14.07;;;;;;;14.99;79.73;100844.38;126361;1099;104140;-80
2021/09/15 03:59:54;;;;;;;26.10;14.17;;;;;;;15.00;80.22;100835.57;126336;1099;104149;-79
2021/09/15 04:02:27;;;;;;;25.77;14.13;;;;;;;15.02;80.22;100840.89;126270;1099;104242;-78
2021/09/15 04:05:01;;;;;;;27.37;13.17;;;;;;;15.04;80.30;100847.13;126368;1099;104187;-79
2021/09/15 04:07:39;;;;;;;26.63;13.43;;;;;;;15.06;80.05;100846.28;126306;1099;104181;-80
2021/09/15 04:10:12;;;;;;;27.33;14.27;;;;;;;15.10;79.43;100844.63;126369;1099;104150;-79
2021/09/15 04:12:48;;;;;;;28.30;13.53;;;;;;;15.12;79.99;100837.61;126197;1099;118757;-78
2021/09/15 04:15:20;;;;;;;26.17;13.53;;;;;;;15.18;80.32;100839.52;126190;1099;104306;-79
2021/09/15 04:17:51;;;;;;;26.37;13.40;;;;;;;15.19;79.91;100838.63;126269;1099;104226;-80
2021/09/15 04:20:23;;;;;;;24.33;13.13;;;;;;;15.22;80.13;100843.98;126329;1099;104146;-79
2021/09/15 04:22:54;;;;;;;26.90;14.00;;;;;;;15.24;79.79;100842.30;126221;1098;104240;-79
2021/09/15 04:33:31;;;;;;;24.93;13.63;;;;;;;15.21;80.14;100856.33;126252;1099;109518;-78
2021/09/15 04:36:02;;;;;;;24.53;14.23;;;;;;;15.23;80.11;100849.31;126281;1099;104271;-79
2021/09/15 04:38:33;;;;;;;26.73;14.40;;;;;;;15.27;80.05;100856.47;126212;1099;104338;-79
2021/09/15 04:41:04;;;;;;;30.97;14.77;;;;;;;15.36;80.58;100852.23;126167;1099;104171;-79
2021/09/15 04:43:35;;;;;;;27.83;14.53;;;;;;;15.45;79.55;100848.02;126275;1099;104206;-80
2021/09/15 04:46:06;;;;;;;30.90;13.60;;;;;;;15.56;79.41;100845.60;126285;1099;104153;-81
2021/09/15 04:48:38;;;;;;;27.10;13.90;;;;;;;15.60;79.49;100849.22;126361;1099;104146;-79
2021/09/15 04:51:12;;;;;;;27.60;13.93;;;;;;;15.60;80.22;100854.52;126171;1099;104322;-77
2021/09/15 04:53:43;;;;;;;28.03;14.07;;;;;;;15.60;79.46;100855.39;126137;1099;104313;-78
2021/09/15 04:56:15;;;;;;;24.80;13.63;;;;;;;15.65;79.39;100858.14;126168;1099;104171;-79
2021/09/15 04:58:46;;;;;;;27.03;14.50;;;;;;;15.68;79.35;100860.84;126267;1098;104149;-80
2021/09/15 05:01:17;;;;;;;27.37;12.87;;;;;;;15.74;79.91;100860.09;126221;1099;104136;-79
2021/09/15 05:03:48;;;;;;;25.63;14.27;;;;;;;15.73;79.57;100860.94;126121;1099;104224;-78
2021/09/15 05:06:19;;;;;;;23.57;13.10;;;;;;;15.77;79.45;100863.72;126192;1098;104297;-79
2021/09/15 05:08:53;;;;;;;27.33;13.70;;;;;;;15.83;80.01;100864.69;126224;1099;104719;-78
2021/09/15 05:11:24;;;;;;;28.07;14.40;;;;;;;15.90;79.35;100863.96;126269;1097;104262;-79
2021/09/15 05:13:54;;;;;;;25.30;13.23;;;;;;;15.94;80.07;100869.34;126245;1099;104144;-81
2021/09/15 05:16:26;;;;;;;30.23;14.43;;;;;;;16.01;80.00;100873.00;126306;1099;104156;-81
2021/09/15 05:18:58;;;;;;;28.03;14.10;;;;;;;16.05;79.55;100877.50;126209;1099;105076;-81
2021/09/15 05:21:29;;;;;;;26.30;13.33;;;;;;;16.07;79.67;100878.41;126202;1099;104172;-79
2021/09/15 05:24:01;;;;;;;26.30;13.57;;;;;;;16.10;80.09;100886.41;126090;1099;104224;-80
2021/09/15 05:26:32;;;;;;;28.37;14.30;;;;;;;16.14;80.17;100890.91;126218;1099;104345;-80
2021/09/15 05:29:05;;;;;;;31.50;14.57;;;;;;;16.17;79.92;100893.62;126113;1099;104242;-81
2021/09/15 05:31:37;;;;;;;28.10;13.13;;;;;;;16.22;79.93;100904.30;126214;1099;104149;-79
2021/09/15 05:34:08;;;;;;;25.20;13.33;;;;;;;16.26;80.01;100900.82;126165;1099;104378;-79
2021/09/15 05:36:41;;;;;;;30.50;14.57;;;;;;;16.30;80.02;100896.50;126037;1099;104659;-79
2021/09/15 05:39:15;;;;;;;30.77;14.93;;;;;;;16.35;79.80;100902.77;126185;1099;104174;-79
2021/09/15 05:41:52;;;;;;;32.60;14.07;;;;;;;16.39;79.89;100901.94;126224;1099;104181;-78
2021/09/15 05:44:28;;;;;;;31.13;14.37;;;;;;;16.46;79.91;100898.55;126087;1099;104440;-78
2021/09/15 05:47:00;;;;;;;28.77;13.63;;;;;;;16.52;79.73;100893.36;126091;1099;104149;-78
2021/09/15 05:49:33;;;;;;;30.10;13.20;;;;;;;16.60;79.23;100900.56;125210;1099;104182;-80
2021/09/15 05:52:06;;;;;;;30.47;13.60;;;;;;;16.66;79.73;100904.20;125228;1102;104300;-78
2021/09/15 05:54:38;;;;;;;29.18;14.05;;;;;;;16.76;79.18;100909.66;125151;1102;104143;-78
2021/09/15 05:57:09;;;;;;;26.07;13.80;;;;;;;16.84;79.49;100908.02;125079;1103;104476;-79
2021/09/15 05:59:43;;;;;;;25.05;12.93;;;;;;;16.93;79.24;100904.67;125102;1102;104361;-79
2021/09/15 06:02:17;;;;;;;26.30;13.85;;;;;;;17.01;79.27;100898.60;125130;1102;104306;-80
2021/09/15 06:04:50;;;;;;;27.47;15.20;;;;;;;17.11;79.17;100906.70;125099;1102;104205;-79
2021/09/15 06:07:32;;;;;;;31.43;15.13;;;;;;;17.19;79.26;100902.42;125037;1102;104150;-77
2021/09/15 06:10:12;;;;;;;29.07;14.87;;;;;;;17.25;78.77;100902.52;125214;1102;104383;-80
2021/09/15 06:12:46;;;;;;;30.17;15.93;;;;;;;17.36;78.97;100905.33;125012;1102;104730;-80
2021/09/15 06:15:32;;;;;;;31.17;14.73;;;;;;;17.48;78.86;100899.28;124934;1102;104166;-80
2021/09/15 06:18:04;;;;;;;;;;;;;;;17.56;78.32;100901.19;125208;1102;101807;-81
2021/09/15 06:20:51;;;;;;;28.63;14.70;;;;;;;17.68;78.31;100907.52;124934;1102;104450;-82
2021/09/15 06:23:51;;;;;;;30.03;15.67;;;;;;;17.84;78.21;100895.33;125038;1102;104903;-80
2021/09/15 06:26:28;;;;;;;29.70;15.27;;;;;;;18.04;78.21;100898.25;125108;1102;104277;-78
2021/09/15 06:29:02;;;;;;;29.40;15.07;;;;;;;18.21;77.56;100894.01;125682;1099;102547;-79
2021/09/15 06:31:38;;;;;;;29.73;15.47;;;;;;;18.39;77.72;100892.44;125342;1099;104187;-78
2021/09/15 06:34:11;;;;;;;27.47;14.97;;;;;;;18.59;77.14;100896.17;126204;1099;104265;-80
2021/09/15 06:36:53;;;;;;;34.27;15.63;;;;;;;18.78;76.71;100906.97;126201;1099;104284;-79
2021/09/15 06:39:28;;;;;;;27.57;14.87;;;;;;;18.89;76.67;100901.77;126181;1099;104166;-81
2021/09/15 06:42:02;;;;;;;29.45;15.10;;;;;;;19.02;76.10;100907.17;126024;1099;104156;-80
2021/09/15 06:44:37;;;;;;;31.33;15.63;;;;;;;19.17;76.64;100903.74;126201;1099;104220;-80
2021/09/15 06:47:12;;;;;;;29.85;15.63;;;;;;;19.34;76.48;100911.84;125988;1099;104226;-80
2021/09/15 06:49:49;;;;;;;32.30;15.45;;;;;;;19.50;75.49;100909.27;126062;1099;104248;-81
2021/09/15 06:52:28;;;;;;;29.50;15.47;;;;;;;19.67;74.93;100907.58;126177;1099;104153;-79
2021/09/15 06:55:07;;;;;;;32.27;14.93;;;;;;;19.79;73.51;100906.79;126241;1099;104185;-81
2021/09/15 06:57:43;;;;;;;26.63;14.23;;;;;;;19.91;74.28;100906.84;126320;1099;104242;-84
2021/09/15 07:00:33;;;;;;;30.60;14.83;;;;;;;19.94;73.92;100897.95;126293;1099;104159;-84
2021/09/15 07:03:12;;;;;;;29.73;14.50;;;;;;;20.15;74.66;100907.80;126239;1099;104560;-82
2021/09/15 07:05:49;;;;;;;26.80;14.50;;;;;;;20.28;74.31;100906.05;126172;1099;104160;-80
2021/09/15 07:08:27;;;;;;;30.97;14.20;;;;;;;20.41;73.63;100904.28;126309;1099;104153;-79
2021/09/15 07:11:09;;;;;;;28.17;15.43;;;;;;;20.45;73.98;100909.62;126282;1099;104171;-81
2021/09/15 07:13:48;;;;;;;27.90;13.60;;;;;;;20.46;72.55;100906.08;126237;1099;104248;-79
2021/09/15 07:16:29;;;;;;;28.20;14.37;;;;;;;20.50;72.37;100908.75;126052;1099;104141;-78
2021/09/15 07:19:07;;;;;;;28.00;14.67;;;;;;;20.55;72.70;100909.64;126201;1099;104163;-82
2021/09/15 07:21:46;;;;;;;27.60;14.00;;;;;;;20.58;71.58;100899.86;126218;1099;104184;-80
2021/09/15 07:24:29;;;;;;;31.43;14.77;;;;;;;20.62;71.27;100911.44;126083;1099;104178;-80
2021/09/15 07:27:05;;;;;;;33.03;14.40;;;;;;;20.64;71.60;100906.98;126129;1099;119722;-83
2021/09/15 07:29:46;;;;;;;28.80;14.30;;;;;;;20.69;71.31;100902.56;126159;1099;104182;-82
2021/09/15 07:32:35;;;;;;;28.33;14.27;;;;;;;20.73;70.46;100906.14;126110;1099;104203;-82
2021/09/15 07:35:21;;;;;;;28.70;13.67;;;;;;;20.80;70.73;100905.23;125969;1099;104653;-81
2021/09/15 07:38:02;;;;;;;29.40;15.40;;;;;;;20.86;68.81;100904.36;126183;1099;105804;-80
2021/09/15 07:40:38;;;;;;;27.23;14.47;;;;;;;20.94;68.61;100913.23;126144;1099;104155;-79
2021/09/15 07:43:12;;;;;;;28.83;14.40;;;;;;;20.95;68.77;100902.56;126078;1099;104277;-80
2021/09/15 07:45:48;;;;;;;27.00;14.03;;;;;;;20.94;68.32;100907.91;126178;1099;104137;-82
2021/09/15 07:48:24;;;;;;;27.73;14.07;;;;;;;21.01;68.28;100902.56;126007;1099;104189;-80
2021/09/15 07:50:56;;;;;;;27.83;13.63;;;;;;;21.11;68.52;100906.09;126161;1099;104194;-79
2021/09/15 07:53:32;;;;;;;29.47;14.17;;;;;;;21.23;68.01;100899.87;126187;1099;104239;-79
2021/09/15 07:56:08;;;;;;;28.27;14.83;;;;;;;21.22;66.83;100903.41;126194;1099;103977;-80
2021/09/15 07:58:42;;;;;;;29.97;14.53;;;;;;;21.22;67.80;100910.55;126123;1099;104191;-79
2021/09/15 08:01:22;;;;;;;29.47;14.97;;;;;;;21.22;67.33;100902.54;126233;1099;104134;-80
2021/09/15 08:04:05;;;;;;;29.07;14.20;;;;;;;21.23;67.23;100904.33;126275;1099;104215;-80
2021/09/15 08:06:45;;;;;;;28.93;14.60;;;;;;;21.30;67.24;100906.98;126144;1099;104228;-79
2021/09/15 08:09:20;;;;;;;28.50;14.40;;;;;;;21.37;66.27;100910.52;126177;1099;104271;-78
2021/09/15 08:11:54;;;;;;;26.67;14.43;;;;;;;21.41;66.12;100908.72;126259;1098;104169;-80
2021/09/15 08:14:28;;;;;;;;;;;;;;;21.45;65.54;100907.83;126190;1097;104220;-79
2021/09/15 08:17:06;;;;;;;28.10;14.33;;;;;;;21.53;65.83;100903.38;126180;1099;104571;-80
2021/09/15 08:19:41;;;;;;;27.43;14.37;;;;;;;21.62;65.26;100910.48;126037;1099;104194;-81
2021/09/15 08:22:17;;;;;;;26.87;14.50;;;;;;;21.70;65.11;100906.88;125904;1099;104242;-80
2021/09/15 08:24:52;;;;;;;29.37;14.33;;;;;;;21.79;64.89;100911.30;126304;1099;104156;-81
2021/09/15 08:27:25;;;;;;;30.03;14.90;;;;;;;21.83;63.50;100901.48;126120;1099;104175;-77
2021/09/15 08:29:57;;;;;;;;;;;;;;;21.98;63.85;100896.08;126286;1099;104140;-80
2021/09/15 08:32:36;;;;;;;24.87;12.63;;;;;;;22.19;64.15;100895.09;126268;1099;104242;-81
2021/09/15 08:35:11;;;;;;;26.70;14.43;;;;;;;22.47;64.15;100894.94;126163;1099;104166;-80
2021/09/15 08:37:47;;;;;;;25.72;12.85;;;;;;;22.75;63.27;100894.70;126350;1099;104194;-82
2021/09/15 08:40:23;;;;;;;27.73;14.03;;;;;;;23.03;62.86;100894.46;126226;1099;104149;-81
2021/09/15 08:42:55;;;;;;;24.57;12.37;;;;;;;23.27;62.83;100888.90;126301;1099;104175;-81
2021/09/15 08:45:29;;;;;;;22.63;12.47;;;;;;;23.47;62.86;100894.04;126192;1099;104204;-79
2021/09/15 08:48:04;;;;;;;32.50;13.07;;;;;;;23.58;62.39;100882.33;126240;1097;104141;-80
2021/09/15 08:50:39;;;;;;;24.03;12.73;;;;;;;23.63;61.37;100886.70;126327;1099;104153;-80
2021/09/15 08:53:12;;;;;;;29.83;12.53;;;;;;;23.72;61.56;100882.13;126226;1098;104175;-78
2021/09/15 08:55:49;;;;;;;22.60;11.90;;;;;;;23.75;61.21;100885.67;126253;1099;104242;-80
2021/09/15 08:58:22;;;;;;;25.50;11.40;;;;;;;23.81;60.75;100879.33;126187;1099;104191;-80
2021/09/15 09:01:09;;;;;;;24.00;12.40;;;;;;;23.75;59.17;100885.67;126119;1099;104136;-79
2021/09/15 09:03:53;;;;;;;21.90;11.40;;;;;;;23.86;59.37;100875.73;126086;1099;104245;-79
2021/09/15 09:06:36;;;;;;;21.80;12.87;;;;;;;23.99;59.09;100881.80;125903;1099;104137;-77
2021/09/15 09:09:17;;;;;;;22.67;12.80;;;;;;;24.05;58.93;100867.44;125958;1099;104229;-79
2021/09/15 09:12:01;;;;;;;23.93;12.03;;;;;;;24.11;58.41;100861.12;126181;1099;104270;-79
2021/09/15 09:14:37;;;;;;;26.40;12.40;;;;;;;24.10;57.12;100862.89;125172;1099;104190;-79
2021/09/15 09:17:27;;;;;;;23.97;12.70;;;;;;;24.21;57.60;100868.09;125198;1099;104178;-79
2021/09/15 09:20:29;;;;;;;22.73;12.40;;;;;;;24.31;57.40;100861.70;125169;1102;110566;-78
2021/09/15 09:23:13;;;;;;;21.50;11.13;;;;;;;24.45;57.34;100858.80;125295;1102;104156;-79
2021/09/15 09:25:57;;;;;;;22.53;11.40;;;;;;;24.62;56.77;100852.28;125201;1099;104214;-81
2021/09/15 09:28:36;;;;;;;22.20;11.27;;;;;;;24.70;56.63;100853.06;125193;1099;104165;-81
2021/09/15 09:31:13;;;;;;;26.50;12.37;;;;;;;24.73;56.05;100853.89;125176;1099;104280;-78
2021/09/15 09:34:04;;;;;;;28.97;12.70;;;;;;;24.71;56.66;100852.12;125230;1099;104569;-80
2021/09/15 09:36:38;;;;;;;27.13;11.97;;;;;;;24.69;55.70;100854.84;125210;1099;104149;-80
2021/09/15 09:39:15;;;;;;;25.37;11.53;;;;;;;24.73;55.45;100851.20;125218;1099;104213;-78
2021/09/15 09:41:50;;;;;;;25.80;11.70;;;;;;;24.80;55.16;100848.41;125200;1099;104434;-78
2021/09/15 09:44:31;;;;;;;22.13;11.03;;;;;;;24.78;54.86;100852.90;125247;1099;104500;-77
2021/09/15 09:47:20;;;;;;;23.10;11.30;;;;;;;24.71;55.07;100842.30;126006;1099;104171;-76
2021/09/15 09:50:05;;;;;;;24.57;11.70;;;;;;;24.60;54.17;100843.39;126147;1099;104147;-78
2021/09/15 09:52:58;;;;;;;21.43;11.20;;;;;;;24.50;54.43;100842.63;126149;1098;104220;-78
2021/09/15 09:55:40;;;;;;;20.73;11.00;;;;;;;24.39;54.23;100849.05;126052;1099;104245;-77
2021/09/15 09:58:14;;;;;;;23.43;11.53;;;;;;;24.28;53.19;100848.34;126241;1099;104268;-77
2021/09/15 10:00:48;;;;;;;22.00;10.30;;;;;;;24.25;53.65;100840.34;126267;1099;110528;-80
2021/09/15 10:03:22;;;;;;;24.20;11.07;;;;;;;24.29;53.33;100844.72;126252;1099;104267;-79
2021/09/15 10:05:59;;;;;;;20.90;11.00;;;;;;;24.35;52.90;100838.39;126154;1099;104214;-78
2021/09/15 10:08:33;;;;;;;23.90;11.03;;;;;;;24.43;53.18;100841.83;126053;1099;104162;-78
2021/09/15 10:11:05;;;;;;;22.15;10.95;;;;;;;24.47;52.43;100837.31;125677;1099;104166;-78
2021/09/15 10:13:36;;;;;;;23.33;10.27;;;;;;;24.56;53.08;100842.53;125937;1099;102459;-76
2021/09/15 10:16:15;;;;;;;25.77;11.70;;;;;;;24.64;52.91;100837.07;125924;1099;104172;-77
2021/09/15 10:18:56;;;;;;;19.70;10.33;;;;;;;24.67;51.94;100835.21;125897;1099;104672;-79
2021/09/15 10:21:33;;;;;;;22.57;9.40;;;;;;;24.69;52.20;100829.82;126047;1099;109882;-79
2021/09/15 10:24:06;;;;;;;19.40;9.20;;;;;;;24.65;52.03;100834.36;126039;1098;104270;-80
2021/09/15 10:26:40;;;;;;;19.57;9.43;;;;;;;24.62;51.49;100831.73;126053;1099;104188;-79
2021/09/15 10:29:31;;;;;;;20.40;9.30;;;;;;;24.71;51.63;100836.03;126087;1099;104140;-78
2021/09/15 10:32:08;;;;;;;18.20;8.87;;;;;;;24.74;51.83;100830.61;126030;1098;119029;-77
2021/09/15 10:34:54;;;;;;;18.77;9.23;;;;;;;24.75;50.82;100827.03;126115;1099;104622;-78
2021/09/15 10:37:54;;;;;;;18.07;8.80;;;;;;;24.85;51.00;100828.61;126089;1099;104195;-78
2021/09/15 10:40:38;;;;;;;17.83;8.30;;;;;;;25.03;50.58;100821.16;125958;1099;104347;-77
2021/09/15 10:43:35;;;;;;;18.03;8.67;;;;;;;25.10;49.15;100807.59;125997;1099;104236;-78
2021/09/15 10:46:22;;;;;;;16.40;8.03;;;;;;;25.26;49.83;100809.97;126130;1099;104291;-80
2021/09/15 10:49:16;;;;;;;17.93;9.07;;;;;;;25.23;49.40;100812.72;126117;1099;104186;-79
2021/09/15 10:52:22;;;;;;;18.53;8.67;;;;;;;25.30;49.83;100809.00;126167;1099;104220;-79
2021/09/15 10:54:56;;;;;;;17.53;8.40;;;;;;;25.25;49.50;100811.75;125336;1102;104138;-80
2021/09/15 10:57:40;;;;;;;18.20;9.53;;;;;;;25.12;48.35;100803.06;126273;1098;104185;-79
2021/09/15 11:00:30;;;;;;;20.03;8.50;;;;;;;25.15;48.87;100802.13;126085;1099;104204;-79
2021/09/15 11:03:28;;;;;;;21.65;9.35;;;;;;;25.11;47.84;100795.03;126145;1099;108167;-79
2021/09/15 11:06:19;;;;;;;18.33;8.20;;;;;;;25.15;48.49;100787.80;125561;1099;104133;-80
2021/09/15 11:08:52;;;;;;;18.93;8.77;;;;;;;25.22;47.96;100789.45;126280;1099;104242;-78
2021/09/15 11:11:36;;;;;;;;;;;;;;;25.30;48.32;100779.46;125393;1099;104216;-80
2021/09/15 11:14:13;;;;;;;20.70;8.20;;;;;;;25.37;48.36;100782.89;125376;1102;104188;-78
2021/09/15 11:16:47;;;;;;;14.40;7.70;;;;;;;25.38;47.98;100779.30;125178;1102;104541;-79
2021/09/15 11:19:30;;;;;;;18.43;7.57;;;;;;;25.38;47.48;100774.80;125975;1099;104580;-78
2021/09/15 11:22:02;;;;;;;15.23;7.47;;;;;;;25.42;47.75;100772.95;125441;1097;104209;-78
2021/09/15 11:24:38;;;;;;;18.85;7.80;;;;;;;25.43;47.50;100769.33;126265;1099;104213;-77
2021/09/15 11:27:13;;;;;;;15.93;7.60;;;;;;;25.40;47.26;100762.25;126081;1099;104133;-78
2021/09/15 11:29:52;;;;;;;18.53;8.13;;;;;;;25.37;46.98;100762.31;126190;1099;104143;-79
2021/09/15 11:32:29;;;;;;;15.43;8.07;;;;;;;25.22;46.78;100765.28;126143;1099;104332;-80
2021/09/15 11:35:02;;;;;;;15.47;7.73;;;;;;;25.11;46.97;100761.00;126249;1099;104194;-78
2021/09/15 11:37:38;;;;;;;14.37;7.40;;;;;;;25.17;46.81;100756.45;126104;1099;104185;-78
2021/09/15 11:40:11;;;;;;;17.87;7.20;;;;;;;25.28;47.33;100754.41;126115;1099;104140;-78
2021/09/15 11:42:43;;;;;;;14.60;7.20;;;;;;;25.24;47.10;100753.61;126149;1099;104143;-80
2021/09/15 11:45:28;;;;;;;14.83;7.77;;;;;;;25.24;46.46;100750.02;126195;1097;104175;-79
2021/09/15 11:48:02;;;;;;;15.53;7.73;;;;;;;25.32;46.51;100742.70;126119;1099;104188;-79
2021/09/15 11:50:37;;;;;;;18.20;6.97;;;;;;;25.42;46.66;100732.66;126339;1099;104163;-80